Asau, Samoa

12:12 AM WSDT on February 07, 2016 (GMT +1400)
Faleolo International | | Change Station
CLOSE
Current Station
Airport
Location: Faleolo,
Elevation: 16 ft
Nearby Weather Stations

Elev 16 ft 13.83 °S, 172.01 °W | Updated 1 hour ago

Mostly Cloudy
Mostly Cloudy
81 °F
Feels Like 86 °F
N
9
Wind Variable Wind from ESE

Today
High -- | Low -- °F
--% Chance of Precip.
Yesterday
High -- | Low -- °F
Precip. -- in
Pressure 29.83 in
Visibility 6.2 miles
Clouds Few 2200 ft
Scattered Clouds 15000 ft
Mostly Cloudy 28000 ft
Heat Index 86 °F
Dew Point 75 °F
Humidity 84%
Rainfall 0.00 in
Snow Depth Not available.
7:25 AM 8:03 PM
Waning Crescent, 6% visible
METAR NSFA 060900Z 11008KT 9999 FEW022 SCT150 BKN280 27/24 Q1010
Pressure 29.83 in
Visibility 6.2 miles
Clouds Few 2200 ft
Scattered Clouds 15000 ft
Mostly Cloudy 28000 ft
Heat Index 86 °F
Dew Point 75 °F
Humidity 84%
Rainfall 0.00 in
Snow Depth Not available.
7:25 AM 8:03 PM
Waning Crescent, 6% visible
METAR NSFA 060900Z 11008KT 9999 FEW022 SCT150 BKN280 27/24 Q1010

10-Day Weather Forecast

No radar image for this location.
×

Almanac

Astronomy

Feb. 07, 2016 Rise Set
Actual Time
Civil Twilight
Nautical Twilight
Astronomical Twilight
Moon
Length of Visible Light
Length of Day
Tomorrow will be .
, % of the Moon is Illuminated

Today's Extremes

Country Highs Country Lows

Community

WunderPhotos

Upload Photos

1,890,933 photos uploaded!

WunderBlog® & News

Nearby

Air Quality

  Air Quality AQ Index Pollutant
Not available.

Snow Depth

Station Depth Elevation

Earthquake Activity

City Distance Mag. Time & Date
Minimum magnitude displayed is 2.5.

Coastal Water Temperatures

Place Temperature

Stations

Nearby Weather Stations

Station Location Temp. Windchill Dew Point Humidity Wind Precip. Elev Updated Type